createdAt,value
2023-01-26T00:02:08.298Z,9.73
2023-01-26T00:04:41.722Z,8.88
2023-01-26T00:07:16.689Z,8.45
2023-01-26T00:09:49.985Z,8.13
2023-01-26T00:12:23.586Z,8.95
2023-01-26T00:14:57.345Z,8.50
2023-01-26T00:17:30.836Z,9.13
2023-01-26T00:20:04.032Z,8.85
2023-01-26T00:22:38.918Z,8.38
2023-01-26T00:25:12.787Z,10.52
2023-01-26T00:30:19.825Z,8.52
2023-01-26T00:32:53.102Z,7.85
2023-01-26T00:35:26.417Z,8.57
2023-01-26T00:38:01.033Z,10.15
2023-01-26T00:40:34.528Z,7.97
2023-01-26T00:43:07.894Z,8.80
2023-01-26T00:45:41.103Z,8.35
2023-01-26T00:48:14.609Z,8.48
2023-01-26T00:50:47.827Z,9.65
2023-01-26T00:53:22.418Z,10.35
2023-01-26T00:55:58.149Z,9.02
2023-01-26T00:58:31.483Z,9.50
2023-01-26T01:01:05.279Z,9.95
2023-01-26T01:03:38.486Z,9.48
2023-01-26T01:06:11.801Z,8.65
2023-01-26T01:08:46.476Z,8.68
2023-01-26T01:11:20.066Z,9.18
2023-01-26T01:13:53.977Z,8.18
2023-01-26T01:19:02.037Z,8.20
2023-01-26T01:21:36.411Z,8.57
2023-01-26T01:24:11.430Z,8.45
2023-01-26T01:26:45.038Z,8.98
2023-01-26T01:29:18.493Z,8.90
2023-01-26T01:31:51.834Z,9.02
2023-01-26T01:34:25.088Z,8.50
2023-01-26T01:36:58.831Z,9.65
2023-01-26T01:39:33.495Z,7.20
2023-01-26T01:42:07.046Z,8.48
2023-01-26T01:44:40.391Z,9.57
2023-01-26T01:47:19.512Z,9.82
2023-01-26T01:49:55.135Z,8.05
2023-01-26T01:52:32.220Z,8.70
2023-01-26T01:55:11.574Z,9.48
2023-01-26T01:57:53.291Z,8.57
2023-01-26T02:00:27.679Z,10.05
2023-01-26T02:03:16.697Z,8.93
2023-01-26T02:05:57.363Z,10.60
2023-01-26T02:08:34.716Z,9.75
2023-01-26T02:11:12.500Z,10.27
2023-01-26T02:13:49.686Z,8.68
2023-01-26T02:16:23.160Z,7.40
2023-01-26T02:18:56.507Z,9.52
2023-01-26T02:21:31.410Z,9.27
2023-01-26T02:24:17.452Z,7.43
2023-01-26T02:26:52.038Z,8.80
2023-01-26T02:29:25.363Z,9.27
2023-01-26T02:31:59.104Z,8.55
2023-01-26T02:37:05.896Z,6.90
2023-01-26T02:39:47.295Z,8.07
2023-01-26T02:42:41.927Z,7.68
2023-01-26T02:45:17.848Z,7.00
2023-01-26T02:47:51.144Z,8.48
2023-01-26T02:50:23.833Z,8.60
2023-01-26T02:52:57.762Z,9.02
2023-01-26T02:55:31.364Z,10.40
2023-01-26T02:58:06.798Z,8.68
2023-01-26T03:00:42.144Z,9.02
2023-01-26T03:03:19.678Z,9.02
2023-01-26T03:05:53.469Z,8.75
2023-01-26T03:08:27.255Z,8.27
2023-01-26T03:11:00.695Z,8.20
2023-01-26T03:13:36.271Z,7.95
2023-01-26T03:16:12.013Z,9.50
2023-01-26T03:19:02.587Z,8.98
2023-01-26T03:21:52.936Z,7.82
2023-01-26T03:24:52.807Z,8.80
2023-01-26T03:27:29.142Z,7.85
2023-01-26T03:30:03.911Z,9.43
2023-01-26T03:32:37.308Z,9.25
2023-01-26T03:35:15.998Z,9.13
2023-01-26T03:37:54.787Z,7.45
2023-01-26T03:40:46.221Z,7.63
2023-01-26T03:43:36.740Z,7.43
2023-01-26T03:46:29.187Z,7.18
2023-01-26T03:49:20.396Z,6.85
2023-01-26T03:52:11.239Z,7.57
2023-01-26T03:55:02.243Z,7.47
2023-01-26T03:57:35.536Z,8.60
2023-01-26T04:00:10.402Z,8.07
2023-01-26T04:03:03.004Z,7.65
2023-01-26T04:05:54.059Z,7.53
2023-01-26T04:08:28.069Z,7.13
2023-01-26T04:11:01.336Z,8.05
2023-01-26T04:13:52.580Z,6.75
2023-01-26T04:16:43.972Z,8.50
2023-01-26T04:19:36.387Z,8.93
2023-01-26T04:22:09.688Z,9.32
2023-01-26T04:24:43.053Z,8.95
2023-01-26T04:27:16.505Z,8.15
2023-01-26T04:29:50.093Z,7.30
2023-01-26T04:32:23.470Z,7.70
2023-01-26T04:34:58.067Z,7.45
2023-01-26T04:37:31.451Z,8.18
2023-01-26T04:40:05.420Z,7.93
2023-01-26T04:42:38.868Z,8.15
2023-01-26T04:45:12.791Z,7.72
2023-01-26T04:47:46.542Z,7.47
2023-01-26T04:50:21.429Z,8.57
2023-01-26T04:52:54.876Z,8.13
2023-01-26T04:55:28.453Z,8.55
2023-01-26T04:58:03.643Z,8.45
2023-01-26T05:00:37.182Z,8.82
2023-01-26T05:03:10.628Z,8.35
2023-01-26T05:05:46.068Z,10.70
2023-01-26T05:08:20.569Z,8.18
2023-01-26T05:10:53.843Z,10.00
2023-01-26T05:13:27.734Z,9.65
2023-01-26T05:18:35.466Z,9.40
2023-01-26T05:21:12.104Z,11.02
2023-01-26T05:23:45.324Z,9.48
2023-01-26T05:26:18.833Z,9.88
2023-01-26T05:31:25.606Z,8.63
2023-01-26T05:36:33.749Z,10.32
2023-01-26T05:39:07.143Z,10.00
2023-01-26T05:41:40.527Z,8.10
2023-01-26T05:44:13.862Z,9.73
2023-01-26T05:46:47.290Z,8.45
2023-01-26T05:49:21.223Z,9.43
2023-01-26T05:54:29.244Z,9.75
2023-01-26T05:57:02.433Z,9.57
2023-01-26T05:59:35.757Z,9.82
2023-01-26T06:02:09.074Z,10.27
2023-01-26T06:04:42.585Z,10.38
2023-01-26T06:07:18.848Z,12.23
2023-01-26T06:09:52.121Z,11.35
2023-01-26T06:12:25.351Z,11.45
2023-01-26T06:14:58.882Z,11.50
2023-01-26T06:17:32.176Z,11.43
2023-01-26T06:20:06.611Z,13.65
2023-01-26T06:22:41.500Z,13.40
2023-01-26T06:25:14.788Z,12.57
2023-01-26T06:27:48.277Z,13.18
2023-01-26T06:30:21.987Z,12.32
2023-01-26T06:32:55.279Z,13.43
2023-01-26T06:35:28.994Z,12.07
2023-01-26T06:40:37.525Z,11.98
2023-01-26T06:43:11.104Z,12.48
2023-01-26T06:45:44.295Z,13.40
2023-01-26T06:48:17.504Z,15.38
2023-01-26T06:50:52.655Z,19.50
2023-01-26T06:53:35.232Z,16.58
2023-01-26T06:56:08.703Z,17.67
2023-01-26T06:58:42.274Z,18.27
2023-01-26T07:01:17.685Z,15.63
2023-01-26T07:03:51.661Z,18.02
2023-01-26T07:06:25.242Z,17.38
2023-01-26T07:09:00.480Z,17.17
2023-01-26T07:11:33.883Z,17.85
2023-01-26T07:14:07.475Z,19.38
2023-01-26T07:16:41.340Z,15.55
2023-01-26T07:19:15.187Z,16.23
2023-01-26T07:21:49.636Z,13.52
2023-01-26T07:24:24.339Z,11.82
2023-01-26T07:26:58.943Z,12.32
2023-01-26T07:29:32.364Z,13.35
2023-01-26T07:32:06.630Z,14.77
2023-01-26T07:34:40.115Z,14.32
2023-01-26T07:37:13.495Z,16.52
2023-01-26T07:39:49.145Z,14.10
2023-01-26T07:42:22.723Z,13.27
2023-01-26T07:44:56.040Z,12.00
2023-01-26T07:47:29.521Z,12.00
2023-01-26T07:52:36.656Z,10.90
2023-01-26T07:55:11.484Z,17.90
2023-01-26T07:57:44.790Z,16.25
2023-01-26T08:00:19.488Z,11.73
2023-01-26T08:02:52.796Z,13.70
2023-01-26T08:08:00.595Z,13.00
2023-01-26T08:10:35.466Z,12.98
2023-01-26T08:13:10.480Z,13.15
2023-01-26T08:15:44.094Z,12.82
2023-01-26T08:18:17.454Z,13.23
2023-01-26T08:20:52.276Z,16.45
2023-01-26T08:23:25.838Z,17.23
2023-01-26T08:26:04.080Z,16.45
2023-01-26T08:28:38.008Z,19.08
2023-01-26T08:33:46.566Z,17.65
2023-01-26T08:36:22.584Z,17.77
2023-01-26T08:38:56.098Z,14.93
2023-01-26T08:41:31.449Z,15.57
2023-01-26T08:44:04.830Z,17.77
2023-01-26T08:46:38.229Z,16.90
2023-01-26T08:49:11.857Z,16.83
2023-01-26T08:54:18.431Z,14.48
2023-01-26T08:56:54.665Z,16.30
2023-01-26T08:59:28.226Z,17.45
2023-01-26T09:02:01.462Z,15.57
2023-01-26T09:04:35.143Z,12.95
2023-01-26T09:07:08.936Z,14.18
2023-01-26T09:09:42.207Z,14.75
2023-01-26T09:12:17.667Z,15.75
2023-01-26T09:14:51.541Z,13.05
2023-01-26T09:17:24.856Z,11.55
2023-01-26T09:19:58.326Z,11.05
2023-01-26T09:25:06.453Z,13.05
2023-01-26T09:27:41.200Z,11.88
2023-01-26T09:30:15.452Z,17.05
2023-01-26T09:32:48.805Z,16.10
2023-01-26T09:35:22.290Z,18.67
2023-01-26T09:37:56.047Z,18.20
2023-01-26T09:40:40.036Z,16.50
2023-01-26T09:43:26.150Z,16.30
2023-01-26T09:46:10.058Z,18.70
2023-01-26T09:48:50.424Z,17.73
2023-01-26T09:51:29.449Z,17.05
2023-01-26T09:54:07.112Z,19.00
2023-01-26T09:56:41.213Z,19.17
2023-01-26T09:59:25.384Z,21.52
2023-01-26T10:02:06.638Z,17.85
2023-01-26T10:04:44.617Z,18.23
2023-01-26T10:07:18.082Z,18.52
2023-01-26T10:09:53.433Z,21.30
2023-01-26T10:12:31.614Z,30.17
2023-01-26T10:15:17.330Z,29.63
2023-01-26T10:17:55.065Z,21.55
2023-01-26T10:20:32.847Z,18.38
2023-01-26T10:23:13.253Z,19.63
2023-01-26T10:25:48.067Z,21.58
2023-01-26T10:28:28.928Z,22.75
2023-01-26T10:31:08.380Z,19.70
2023-01-26T10:33:50.148Z,18.83
2023-01-26T10:36:24.476Z,18.65
2023-01-26T10:39:05.519Z,20.85
2023-01-26T10:41:39.277Z,24.33
2023-01-26T10:44:26.639Z,19.95
2023-01-26T10:47:07.827Z,17.83
2023-01-26T10:49:41.246Z,16.70
2023-01-26T10:52:18.597Z,17.50
2023-01-26T10:55:10.634Z,17.95
2023-01-26T10:57:44.348Z,16.80
2023-01-26T11:00:25.849Z,19.23
2023-01-26T11:03:08.089Z,23.15
2023-01-26T11:05:41.331Z,23.17
2023-01-26T11:08:33.945Z,21.02
2023-01-26T11:11:10.566Z,18.00
2023-01-26T11:13:44.822Z,19.48
2023-01-26T11:19:00.842Z,17.88
2023-01-26T11:21:41.530Z,14.82
2023-01-26T11:24:23.303Z,15.98
2023-01-26T11:27:23.841Z,14.88
2023-01-26T11:30:24.564Z,13.15
2023-01-26T11:33:02.559Z,14.90
2023-01-26T11:35:52.613Z,13.48
2023-01-26T11:38:41.328Z,13.07
2023-01-26T11:41:31.340Z,10.43
2023-01-26T11:44:52.023Z,13.73
2023-01-26T11:47:40.880Z,12.20
2023-01-26T11:50:29.828Z,12.88
2023-01-26T11:53:28.212Z,10.63
2023-01-26T11:56:22.398Z,10.30
2023-01-26T11:58:59.896Z,14.40
2023-01-26T12:01:39.323Z,14.40
2023-01-26T12:04:19.187Z,16.30
2023-01-26T12:06:59.129Z,13.48
2023-01-26T12:09:38.740Z,17.00
2023-01-26T12:12:19.197Z,15.73
2023-01-26T12:14:58.807Z,12.27
2023-01-26T12:17:41.955Z,14.10
2023-01-26T12:20:30.213Z,14.60
2023-01-26T12:23:07.107Z,15.02
2023-01-26T12:25:46.497Z,20.83
2023-01-26T12:28:24.104Z,28.45
2023-01-26T12:31:05.557Z,19.75
2023-01-26T12:33:39.579Z,15.82
2023-01-26T12:36:24.276Z,14.60
2023-01-26T12:39:13.976Z,27.63
2023-01-26T12:42:15.216Z,19.13
2023-01-26T12:44:53.690Z,17.75
2023-01-26T12:47:31.697Z,18.05
2023-01-26T12:50:12.795Z,18.63
2023-01-26T12:52:50.372Z,16.65
2023-01-26T12:55:27.777Z,20.40
2023-01-26T12:58:05.131Z,15.57
2023-01-26T13:00:40.378Z,15.25
2023-01-26T13:03:20.025Z,12.98
2023-01-26T13:05:58.711Z,12.77
2023-01-26T13:08:53.605Z,12.77
2023-01-26T13:11:48.739Z,10.30
2023-01-26T13:14:33.302Z,13.23
2023-01-26T13:17:50.174Z,13.55
2023-01-26T13:20:49.416Z,12.98
2023-01-26T13:23:43.593Z,11.30
2023-01-26T13:26:44.532Z,11.88
2023-01-26T13:29:54.151Z,13.00
2023-01-26T13:33:05.936Z,12.52
2023-01-26T13:35:40.212Z,14.30
2023-01-26T13:38:29.150Z,14.52
2023-01-26T13:41:07.999Z,15.57
2023-01-26T13:43:45.461Z,15.50
2023-01-26T13:46:26.688Z,16.40
2023-01-26T13:49:00.013Z,16.17
2023-01-26T13:51:35.649Z,15.70
2023-01-26T13:54:14.567Z,17.77
2023-01-26T13:57:03.280Z,17.65
2023-01-26T13:59:50.171Z,17.20
2023-01-26T14:02:27.142Z,15.30
2023-01-26T14:05:02.081Z,12.63
2023-01-26T14:07:39.489Z,13.80
2023-01-26T14:10:19.639Z,12.90
2023-01-26T14:12:56.764Z,13.15
2023-01-26T14:15:33.864Z,10.95
2023-01-26T14:18:22.264Z,13.27
2023-01-26T14:21:05.145Z,13.88
2023-01-26T14:23:38.553Z,14.57
2023-01-26T14:26:20.073Z,14.60
2023-01-26T14:28:53.399Z,14.77
2023-01-26T14:31:28.128Z,14.45
2023-01-26T14:34:02.727Z,16.00
2023-01-26T14:36:39.355Z,16.92
2023-01-26T14:39:19.136Z,16.45
2023-01-26T14:41:52.464Z,16.60
2023-01-26T14:44:25.631Z,18.45
2023-01-26T14:47:03.623Z,17.20
2023-01-26T14:49:45.994Z,41.80
2023-01-26T14:52:25.327Z,23.95
2023-01-26T14:55:00.815Z,16.58
2023-01-26T14:57:34.629Z,13.93
2023-01-26T15:00:21.106Z,12.20
2023-01-26T15:02:56.800Z,13.48
2023-01-26T15:05:35.660Z,14.10
2023-01-26T15:08:21.088Z,14.25
2023-01-26T15:11:16.473Z,13.63
2023-01-26T15:13:54.154Z,12.20
2023-01-26T15:16:28.089Z,14.65
2023-01-26T15:21:39.842Z,13.90
2023-01-26T15:24:15.976Z,15.77
2023-01-26T15:26:51.603Z,15.45
2023-01-26T15:29:26.747Z,14.57
2023-01-26T15:32:00.338Z,14.82
2023-01-26T15:34:37.459Z,15.95
2023-01-26T15:37:29.759Z,17.33
2023-01-26T15:40:04.113Z,17.15
2023-01-26T15:42:37.868Z,18.55
2023-01-26T15:45:23.614Z,14.80
2023-01-26T15:47:57.114Z,17.17
2023-01-26T15:50:30.399Z,14.48
2023-01-26T15:53:05.298Z,15.75
2023-01-26T15:55:38.947Z,16.00
2023-01-26T15:58:12.400Z,16.55
2023-01-26T16:00:45.751Z,15.52
2023-01-26T16:03:22.238Z,16.42
2023-01-26T16:05:56.035Z,16.73
2023-01-26T16:13:37.510Z,17.73
2023-01-26T16:16:11.800Z,19.50
2023-01-26T16:18:45.457Z,18.83
2023-01-26T16:23:55.023Z,17.08
2023-01-26T16:26:29.110Z,19.73
2023-01-26T16:29:02.307Z,18.55
2023-01-26T16:31:37.006Z,18.00
2023-01-26T16:34:11.341Z,20.35
2023-01-26T16:36:44.820Z,19.50
2023-01-26T16:41:53.453Z,21.52
2023-01-26T16:44:26.736Z,20.08
2023-01-26T16:46:59.942Z,17.60
2023-01-26T16:49:33.953Z,20.05
2023-01-26T16:54:45.669Z,20.27
2023-01-26T16:57:18.984Z,19.00
2023-01-26T16:59:52.036Z,19.17
2023-01-26T17:02:28.713Z,17.77
2023-01-26T17:05:01.946Z,17.30
2023-01-26T17:10:12.256Z,13.13
2023-01-26T17:12:46.244Z,14.07
2023-01-26T17:17:53.392Z,14.03
2023-01-26T17:20:27.185Z,13.93
2023-01-26T17:23:00.955Z,12.57
2023-01-26T17:28:09.028Z,13.27
2023-01-26T17:30:42.212Z,16.58
2023-01-26T17:33:15.407Z,15.98
2023-01-26T17:35:48.887Z,14.32
2023-01-26T17:38:22.312Z,11.82
2023-01-26T17:40:57.755Z,14.80
2023-01-26T17:43:32.087Z,16.10
2023-01-26T17:46:07.975Z,14.57
2023-01-26T17:48:44.182Z,12.85
2023-01-26T17:51:19.796Z,14.15
2023-01-26T17:53:54.302Z,13.90
2023-01-26T17:56:30.829Z,12.85
2023-01-26T17:59:04.445Z,13.57
2023-01-26T18:01:37.898Z,14.57
2023-01-26T18:04:11.097Z,14.20
2023-01-26T18:06:44.392Z,17.35
2023-01-26T18:09:17.707Z,17.35
2023-01-26T18:11:52.833Z,20.05
2023-01-26T18:14:26.551Z,18.50
2023-01-26T18:19:33.184Z,15.60
2023-01-26T18:22:06.516Z,14.00
2023-01-26T18:24:40.421Z,13.07
2023-01-26T18:27:15.493Z,14.68
2023-01-26T18:29:49.182Z,14.23
2023-01-26T18:32:22.494Z,15.25
2023-01-26T18:34:56.733Z,14.25
2023-01-26T18:37:32.999Z,12.60
2023-01-26T18:40:09.812Z,12.45
2023-01-26T18:42:46.274Z,14.13
2023-01-26T18:45:21.078Z,13.75
2023-01-26T18:47:55.038Z,14.70
2023-01-26T18:53:03.655Z,14.93
2023-01-26T18:55:38.236Z,14.10
2023-01-26T18:58:13.419Z,15.55
2023-01-26T19:00:46.989Z,16.05
2023-01-26T19:03:20.854Z,14.88
2023-01-26T19:05:54.403Z,12.35
2023-01-26T19:08:28.897Z,11.90
2023-01-26T19:11:06.971Z,11.80
2023-01-26T19:13:43.543Z,10.93
2023-01-26T19:16:17.417Z,10.35
2023-01-26T19:21:27.786Z,8.95
2023-01-26T19:24:02.722Z,9.13
2023-01-26T19:26:36.408Z,9.02
2023-01-26T19:29:12.021Z,9.93
2023-01-26T19:31:45.882Z,12.38
2023-01-26T19:34:19.485Z,12.48
2023-01-26T19:36:53.464Z,14.45
2023-01-26T19:39:27.284Z,13.90
2023-01-26T19:42:00.665Z,14.00
2023-01-26T19:44:35.473Z,13.75
2023-01-26T19:47:09.164Z,14.45
2023-01-26T19:49:42.718Z,14.90
2023-01-26T19:52:16.332Z,15.27
2023-01-26T19:54:50.834Z,17.48
2023-01-26T19:57:25.819Z,16.85
2023-01-26T20:00:01.185Z,14.63
2023-01-26T20:02:35.662Z,13.05
2023-01-26T20:05:13.047Z,13.25
2023-01-26T20:07:48.026Z,12.00
2023-01-26T20:10:22.003Z,10.23
2023-01-26T20:12:57.510Z,10.18
2023-01-26T20:15:35.559Z,10.25
2023-01-26T20:18:09.261Z,10.10
2023-01-26T20:20:42.980Z,13.45
2023-01-26T20:25:51.615Z,9.98
2023-01-26T20:28:25.275Z,9.18
2023-01-26T20:31:06.862Z,8.20
2023-01-26T20:33:40.858Z,8.73
2023-01-26T20:36:17.683Z,6.93
2023-01-26T20:38:51.585Z,8.15
2023-01-26T20:41:27.387Z,8.38
2023-01-26T20:44:02.796Z,7.60
2023-01-26T20:46:40.320Z,7.32
2023-01-26T20:49:17.015Z,7.53
2023-01-26T20:51:50.489Z,6.13
2023-01-26T20:54:24.065Z,6.55
2023-01-26T20:56:57.576Z,6.45
2023-01-26T20:59:31.176Z,6.20
2023-01-26T21:02:06.678Z,6.57
2023-01-26T21:04:40.635Z,7.13
2023-01-26T21:09:47.209Z,6.32
2023-01-26T21:12:21.218Z,7.45
2023-01-26T21:14:55.181Z,7.75
2023-01-26T21:17:30.125Z,8.23
2023-01-26T21:20:03.403Z,7.55
2023-01-26T21:22:36.820Z,9.43
2023-01-26T21:25:11.496Z,8.55
2023-01-26T21:27:44.647Z,7.82
2023-01-26T21:30:18.806Z,9.38
2023-01-26T21:32:53.878Z,8.40
2023-01-26T21:35:27.755Z,9.02
2023-01-26T21:38:01.445Z,7.88
2023-01-26T21:40:34.548Z,7.00
2023-01-26T21:43:08.104Z,7.32
2023-01-26T21:45:56.393Z,6.97
2023-01-26T21:48:35.976Z,7.57
2023-01-26T21:51:27.243Z,7.50
2023-01-26T21:54:00.869Z,6.57
2023-01-26T21:56:35.283Z,7.05
2023-01-26T21:59:10.631Z,7.57
2023-01-26T22:01:46.381Z,6.65
2023-01-26T22:04:24.002Z,7.15
2023-01-26T22:06:58.198Z,7.97
2023-01-26T22:09:31.571Z,9.27
2023-01-26T22:12:05.921Z,10.80
2023-01-26T22:14:39.779Z,9.73
2023-01-26T22:17:13.604Z,8.70
2023-01-26T22:19:48.672Z,7.60
2023-01-26T22:22:22.179Z,6.80
2023-01-26T22:24:55.497Z,8.15
2023-01-26T22:27:29.149Z,6.22
2023-01-26T22:30:02.933Z,7.53
2023-01-26T22:32:36.258Z,6.95
2023-01-26T22:35:11.274Z,7.88
2023-01-26T22:37:44.790Z,7.28
2023-01-26T22:40:17.881Z,8.07
2023-01-26T22:42:52.226Z,8.10
2023-01-26T22:45:25.585Z,8.05
2023-01-26T22:47:58.854Z,7.10
2023-01-26T22:50:33.487Z,7.63
2023-01-26T22:53:06.905Z,8.45
2023-01-26T22:55:42.307Z,7.13
2023-01-26T22:58:15.416Z,7.70
2023-01-26T23:00:48.581Z,8.00
2023-01-26T23:03:22.654Z,8.57
2023-01-26T23:06:01.235Z,7.60
2023-01-26T23:08:35.238Z,8.02
2023-01-26T23:11:10.488Z,8.05
2023-01-26T23:13:45.398Z,9.75
2023-01-26T23:16:21.363Z,9.40
2023-01-26T23:18:57.388Z,9.77
2023-01-26T23:21:32.467Z,6.57
2023-01-26T23:24:06.399Z,8.35
2023-01-26T23:26:39.772Z,8.00
2023-01-26T23:29:12.940Z,8.27
2023-01-26T23:31:46.156Z,8.20
2023-01-26T23:34:19.611Z,7.65
2023-01-26T23:36:54.445Z,8.10
2023-01-26T23:39:27.870Z,7.25
2023-01-26T23:42:01.086Z,8.45
2023-01-26T23:44:34.346Z,8.60
2023-01-26T23:47:07.457Z,7.72
2023-01-26T23:49:40.717Z,7.07
2023-01-26T23:52:15.318Z,7.35
2023-01-26T23:54:48.877Z,7.10
2023-01-26T23:57:22.178Z,7.47
2023-01-26T23:59:55.297Z,7.47
